Time;durP1;ratioP1;P1;durP2;ratioP2;P2;SDS_P1;SDS_P2;PMS_P1;PMS_P2;Temp;Humidity;BMP_temperature;BMP_pressure;BME280_temperature;BME280_humidity;BME280_pressure;Samples;Min_cycle;Max_cycle;Signal;HPM_P1;HPM_P2
2022/07/14 00:01:52;;;;;;;10.82;2.90;;;16.70;99.90;;;;;;5049458;28;20052;-69
2022/07/14 00:04:18;;;;;;;12.05;3.10;;;16.60;99.90;;;;;;5071571;28;20346;-68
2022/07/14 00:06:44;;;;;;;12.68;2.95;;;16.60;99.90;;;;;;5070747;28;20347;-68
2022/07/14 00:09:09;;;;;;;14.55;3.20;;;16.60;99.90;;;;;;5070710;28;20123;-68
2022/07/14 00:11:36;;;;;;;15.02;3.63;;;16.60;99.90;;;;;;5054083;28;20050;-68
2022/07/14 00:14:01;;;;;;;11.90;3.10;;;16.50;99.90;;;;;;5072399;28;20036;-68
2022/07/14 00:16:27;;;;;;;12.10;2.85;;;16.70;99.90;;;;;;5054673;28;20086;-68
2022/07/14 00:18:53;;;;;;;12.23;2.90;;;16.80;99.90;;;;;;5053396;28;20138;-68
2022/07/14 00:21:19;;;;;;;12.35;3.03;;;16.50;99.90;;;;;;5040063;28;20052;-68
2022/07/14 00:23:46;;;;;;;11.57;3.25;;;16.50;99.90;;;;;;5054617;28;20049;-69
2022/07/14 00:26:12;;;;;;;9.70;2.70;;;16.40;99.90;;;;;;5071035;28;20124;-69
2022/07/14 00:28:38;;;;;;;8.93;3.20;;;16.40;99.90;;;;;;5069822;28;20397;-68
2022/07/14 00:31:08;;;;;;;8.75;2.95;;;16.40;99.90;;;;;;5072104;28;20091;-68
2022/07/14 00:33:34;;;;;;;15.40;3.65;;;16.40;99.90;;;;;;5071180;28;20060;-68
2022/07/14 00:36:00;;;;;;;11.20;3.10;;;16.30;99.90;;;;;;5070084;28;20044;-68
2022/07/14 00:38:25;;;;;;;12.23;3.22;;;17.30;99.90;;;;;;5069980;28;20041;-68
2022/07/14 00:40:51;;;;;;;14.85;3.55;;;16.30;99.90;;;;;;5070510;28;20041;-68
2022/07/14 00:43:18;;;;;;;12.15;3.58;;;16.40;99.90;;;;;;5069321;28;20099;-68
2022/07/14 00:45:44;;;;;;;11.10;3.17;;;16.30;99.90;;;;;;5052141;28;20040;-68
2022/07/14 00:48:12;;;;;;;14.55;3.15;;;16.20;99.90;;;;;;5073043;28;20048;-68
2022/07/14 00:50:41;;;;;;;12.27;3.15;;;16.20;99.90;;;;;;5071153;28;20505;-68
2022/07/14 00:53:08;;;;;;;16.98;3.67;;;16.30;99.90;;;;;;5070235;28;20048;-69
2022/07/14 00:55:38;;;;;;;9.48;3.28;;;16.20;99.90;;;;;;5051524;28;20121;-69
2022/07/14 00:58:04;;;;;;;12.98;3.90;;;16.10;99.90;;;;;;5069793;28;20094;-69
2022/07/14 01:00:30;;;;;;;11.07;3.25;;;16.10;99.90;;;;;;5069511;28;20516;-69
2022/07/14 01:02:56;;;;;;;13.40;3.50;;;16.20;99.90;;;;;;5069612;28;20369;-69
2022/07/14 01:05:22;;;;;;;14.40;3.97;;;16.10;99.90;;;;;;5070098;28;20052;-69
2022/07/14 01:07:47;;;;;;;19.55;3.88;;;16.10;99.90;;;;;;5070755;28;20044;-69
2022/07/14 01:10:14;;;;;;;11.65;3.40;;;16.10;99.90;;;;;;5053384;28;20044;-69
2022/07/14 01:12:45;;;;;;;9.65;3.22;;;16.00;99.90;;;;;;5070240;28;20054;-69
2022/07/14 01:15:11;;;;;;;15.50;3.63;;;16.00;99.90;;;;;;5051208;28;20052;-69
2022/07/14 01:17:37;;;;;;;11.52;3.58;;;16.00;99.90;;;;;;5068946;28;20203;-69
2022/07/14 01:20:06;;;;;;;8.32;3.10;;;16.00;99.90;;;;;;5070101;28;20169;-69
2022/07/14 01:22:31;;;;;;;14.65;4.05;;;16.00;99.90;;;;;;5069013;28;20401;-69
2022/07/14 01:24:57;;;;;;;9.30;3.42;;;16.00;99.90;;;;;;5069238;28;20051;-70
2022/07/14 01:27:23;;;;;;;9.18;3.08;;;16.00;99.90;;;;;;5069174;28;20534;-69
2022/07/14 01:29:48;;;;;;;11.73;3.50;;;16.00;99.90;;;;;;5071338;28;20044;-69
2022/07/14 01:32:14;;;;;;;15.23;3.67;;;16.10;99.90;;;;;;5071432;28;20191;-69
2022/07/14 01:34:39;;;;;;;10.35;3.67;;;16.00;99.90;;;;;;5072300;28;20524;-69
2022/07/14 01:37:05;;;;;;;10.45;4.10;;;16.00;99.90;;;;;;5072373;28;20465;-69
2022/07/14 01:39:31;;;;;;;11.40;3.70;;;16.00;99.90;;;;;;5070715;28;20117;-69
2022/07/14 01:41:56;;;;;;;12.18;3.40;;;16.00;99.90;;;;;;5051758;28;20048;-69
2022/07/14 01:44:22;;;;;;;13.38;3.55;;;15.90;99.90;;;;;;5069093;28;20554;-69
2022/07/14 01:46:47;;;;;;;10.80;3.50;;;16.00;99.90;;;;;;5052184;28;20098;-69
2022/07/14 01:49:13;;;;;;;13.80;3.38;;;16.50;99.90;;;;;;5069262;28;20532;-69
2022/07/14 01:51:39;;;;;;;13.25;3.40;;;16.00;99.90;;;;;;5069797;28;20598;-68
2022/07/14 01:54:05;;;;;;;10.88;3.95;;;15.80;99.90;;;;;;5051527;28;20040;-69
2022/07/14 01:56:31;;;;;;;18.20;3.53;;;15.70;99.90;;;;;;5068916;28;20036;-69
2022/07/14 01:58:57;;;;;;;11.27;3.50;;;15.70;99.90;;;;;;5070488;28;20392;-69
2022/07/14 02:01:41;;;;;;;12.90;3.15;;;15.70;99.90;;;;;;5050086;28;20447;-69
2022/07/14 02:04:11;;;;;;;13.75;3.20;;;16.20;99.90;;;;;;5069019;28;20044;-68
2022/07/14 02:06:40;;;;;;;10.77;3.30;;;15.60;99.90;;;;;;5067730;28;20064;-69
2022/07/14 02:09:06;;;;;;;14.57;3.00;;;15.60;99.90;;;;;;5068422;28;20477;-69
2022/07/14 02:14:19;;;;;;;14.27;3.47;;;15.60;99.90;;;;;;5067451;28;20064;-69
2022/07/14 02:16:45;;;;;;;14.93;3.50;;;15.60;99.90;;;;;;5069028;28;20040;-68
2022/07/14 02:19:10;;;;;;;11.93;3.20;;;15.50;99.90;;;;;;5069588;28;20546;-69
2022/07/14 02:21:39;;;;;;;9.07;3.20;;;15.90;99.90;;;;;;5068025;28;20047;-69
2022/07/14 02:24:05;;;;;;;12.50;3.40;;;15.50;99.90;;;;;;5069849;28;20056;-69
2022/07/14 02:26:30;;;;;;;8.48;2.80;;;15.40;99.90;;;;;;5067544;28;20040;-69
2022/07/14 02:28:56;;;;;;;11.32;3.13;;;15.40;99.90;;;;;;5067776;28;20099;-69
2022/07/14 02:31:22;;;;;;;12.15;3.22;;;15.40;99.90;;;;;;5067788;28;20120;-69
2022/07/14 02:33:48;;;;;;;11.68;3.63;;;15.40;99.90;;;;;;5069984;28;20500;-69
2022/07/14 02:36:13;;;;;;;9.80;3.13;;;15.40;99.90;;;;;;5068826;28;20052;-69
2022/07/14 02:38:39;;;;;;;11.20;3.20;;;15.30;99.90;;;;;;5067551;28;20052;-68
2022/07/14 02:41:05;;;;;;;10.18;3.05;;;15.30;99.90;;;;;;5068189;28;20424;-69
2022/07/14 02:43:32;;;;;;;13.02;3.28;;;15.20;99.90;;;;;;5032099;28;20131;-69
2022/07/14 02:45:58;;;;;;;11.85;3.33;;;15.10;99.90;;;;;;5068149;28;20447;-69
2022/07/14 02:48:24;;;;;;;10.07;3.00;;;15.10;99.90;;;;;;5033151;28;20143;-68
2022/07/14 02:50:50;;;;;;;12.35;3.17;;;15.20;99.90;;;;;;5068345;28;20578;-69
2022/07/14 02:53:16;;;;;;;13.77;3.33;;;15.10;99.90;;;;;;5050248;28;20135;-68
2022/07/14 02:55:41;;;;;;;11.43;3.15;;;15.00;99.90;;;;;;5066746;28;20064;-69
2022/07/14 02:58:07;;;;;;;13.05;3.25;;;15.00;99.90;;;;;;5049859;28;20489;-69
2022/07/14 03:00:33;;;;;;;10.07;3.13;;;15.00;99.90;;;;;;5049383;28;20110;-68
2022/07/14 03:03:00;;;;;;;10.02;2.80;;;15.00;99.90;;;;;;5067257;28;20045;-67
2022/07/14 03:05:27;;;;;;;15.00;3.13;;;15.40;99.90;;;;;;5067991;28;20059;-68
2022/07/14 03:07:52;;;;;;;9.10;2.80;;;15.40;99.90;;;;;;5067824;28;20397;-67
2022/07/14 03:10:18;;;;;;;10.80;2.83;;;14.90;99.90;;;;;;5068382;28;20130;-68
2022/07/14 03:12:44;;;;;;;11.10;3.20;;;14.90;99.90;;;;;;5049425;28;20061;-68
2022/07/14 03:15:10;;;;;;;12.13;2.85;;;14.90;99.90;;;;;;5067685;28;20509;-67
2022/07/14 03:17:38;;;;;;;8.15;2.92;;;15.00;99.90;;;;;;5067650;28;20063;-67
2022/07/14 03:20:06;;;;;;;11.63;3.10;;;14.90;99.90;;;;;;5067690;28;20083;-68
2022/07/14 03:22:32;;;;;;;13.55;3.22;;;14.90;99.90;;;;;;5067584;28;20040;-67
2022/07/14 03:24:58;;;;;;;9.18;3.28;;;14.90;99.90;;;;;;5068671;28;20052;-68
2022/07/14 03:27:24;;;;;;;12.55;3.40;;;14.90;99.90;;;;;;5049314;28;20044;-68
2022/07/14 03:29:50;;;;;;;10.93;2.80;;;15.00;99.90;;;;;;5067553;28;20040;-67
2022/07/14 03:32:15;;;;;;;9.82;3.13;;;14.80;99.90;;;;;;5066666;28;20048;-67
2022/07/14 03:34:41;;;;;;;10.98;3.15;;;14.80;99.90;;;;;;5050267;28;20531;-68
2022/07/14 03:37:07;;;;;;;9.32;2.70;;;14.80;99.90;;;;;;5067987;28;20098;-70
2022/07/14 03:39:32;;;;;;;6.47;2.63;;;15.20;99.90;;;;;;5052656;28;20053;-70
2022/07/14 03:41:58;;;;;;;11.63;3.28;;;14.70;99.90;;;;;;5071366;28;20041;-70
2022/07/14 03:44:24;;;;;;;10.05;2.75;;;14.80;99.90;;;;;;5071016;28;20079;-70
2022/07/14 03:46:50;;;;;;;8.35;2.90;;;14.70;99.90;;;;;;5053547;28;20145;-70
2022/07/14 03:49:16;;;;;;;10.57;2.83;;;14.60;99.90;;;;;;5053963;28;20476;-70
2022/07/14 03:51:44;;;;;;;8.65;2.50;;;14.80;99.90;;;;;;5055684;28;20040;-71
2022/07/14 03:54:10;;;;;;;11.05;2.50;;;14.60;99.90;;;;;;5071919;28;20040;-70
2022/07/14 03:56:39;;;;;;;10.93;2.60;;;14.70;99.90;;;;;;5071057;28;20404;-70
2022/07/14 03:59:05;;;;;;;12.82;2.70;;;15.10;99.90;;;;;;5052218;28;20130;-70
2022/07/14 04:01:31;;;;;;;10.07;2.72;;;14.70;99.90;;;;;;5053063;28;20072;-70
2022/07/14 04:03:57;;;;;;;8.85;2.45;;;14.90;99.90;;;;;;5054577;28;20459;-70
2022/07/14 04:06:23;;;;;;;9.57;2.65;;;15.00;99.90;;;;;;5071871;28;20073;-70
2022/07/14 04:08:49;;;;;;;10.63;2.50;;;14.70;99.90;;;;;;5071503;28;20044;-70
2022/07/14 04:11:15;;;;;;;9.25;2.42;;;14.70;99.90;;;;;;5070473;28;20060;-70
2022/07/14 04:13:41;;;;;;;7.38;2.90;;;14.70;99.90;;;;;;5069994;28;20060;-70
2022/07/14 04:16:07;;;;;;;9.23;3.00;;;14.90;99.90;;;;;;5070953;28;20040;-70
2022/07/14 04:18:32;;;;;;;11.52;2.63;;;14.70;99.90;;;;;;5036939;28;20397;-70
2022/07/14 04:20:58;;;;;;;7.68;2.60;;;15.20;99.90;;;;;;5071224;28;20469;-70
2022/07/14 04:23:23;;;;;;;10.35;2.70;;;14.70;99.90;;;;;;5070757;28;20044;-68
2022/07/14 04:25:49;;;;;;;7.10;2.72;;;15.10;99.90;;;;;;5070695;28;20048;-68
2022/07/14 04:28:15;;;;;;;7.65;2.50;;;14.90;99.90;;;;;;5070051;28;20088;-68
2022/07/14 04:30:41;;;;;;;12.60;3.05;;;14.80;99.90;;;;;;5070260;28;20048;-67
2022/07/14 04:33:09;;;;;;;7.65;2.38;;;14.90;99.90;;;;;;5072601;28;20374;-68
2022/07/14 04:35:36;;;;;;;10.50;3.00;;;14.90;99.90;;;;;;5069793;28;20033;-70
2022/07/14 04:38:02;;;;;;;10.70;3.03;;;14.90;99.90;;;;;;5071782;28;20086;-68
2022/07/14 04:40:27;;;;;;;8.82;2.70;;;14.90;99.90;;;;;;5052941;28;20076;-71
2022/07/14 04:42:53;;;;;;;7.38;3.10;;;14.90;99.90;;;;;;5069388;28;20053;-70
2022/07/14 04:45:20;;;;;;;11.90;2.70;;;14.90;99.90;;;;;;5053879;28;20405;-70
2022/07/14 04:47:45;;;;;;;6.72;2.65;;;14.90;99.90;;;;;;5069937;28;20397;-70
2022/07/14 04:52:55;;;;;;;8.35;2.90;;;14.90;99.90;;;;;;5070136;28;20064;-71
2022/07/14 04:55:21;;;;;;;10.95;2.75;;;14.90;99.90;;;;;;5069177;28;20100;-70
2022/07/14 04:57:46;;;;;;;6.93;2.58;;;14.90;99.90;;;;;;5071853;28;20050;-70
2022/07/14 05:00:12;;;;;;;9.90;2.88;;;14.90;99.90;;;;;;5071997;28;20037;-71
2022/07/14 05:02:38;;;;;;;6.97;2.72;;;14.90;99.90;;;;;;5072034;28;20033;-71
2022/07/14 05:05:04;;;;;;;11.70;3.05;;;14.90;99.90;;;;;;5071604;28;20446;-70
2022/07/14 05:07:30;;;;;;;8.05;3.00;;;14.90;99.90;;;;;;5069461;28;20045;-70
2022/07/14 05:09:55;;;;;;;7.68;2.80;;;14.90;99.90;;;;;;5068793;28;20068;-71
2022/07/14 05:12:21;;;;;;;9.05;2.88;;;14.90;99.90;;;;;;5051900;28;20944;-70
2022/07/14 05:14:47;;;;;;;9.63;2.80;;;15.00;99.90;;;;;;5069017;28;20529;-70
2022/07/14 05:17:13;;;;;;;8.88;2.67;;;15.30;99.90;;;;;;5069428;28;20055;-69
2022/07/14 05:19:39;;;;;;;8.20;2.72;;;15.60;99.90;;;;;;5070029;28;20048;-69
2022/07/14 05:22:04;;;;;;;8.48;2.80;;;15.00;99.90;;;;;;5069599;28;20356;-70
2022/07/14 05:24:30;;;;;;;7.68;3.00;;;15.20;99.90;;;;;;5068771;28;20045;-70
2022/07/14 05:26:59;;;;;;;9.85;2.90;;;15.20;99.90;;;;;;5069698;28;20051;-70
2022/07/14 05:29:25;;;;;;;10.93;3.10;;;15.00;99.90;;;;;;5069012;28;20123;-69
2022/07/14 05:31:51;;;;;;;7.15;2.50;;;15.70;99.90;;;;;;5069066;28;20041;-69
2022/07/14 05:34:17;;;;;;;8.43;2.70;;;15.00;99.90;;;;;;5069286;28;20044;-69
2022/07/14 05:36:43;;;;;;;10.40;2.47;;;15.10;99.90;;;;;;5051364;28;20083;-69
2022/07/14 05:39:08;;;;;;;9.60;2.85;;;15.10;99.90;;;;;;5068103;28;20079;-70
2022/07/14 05:41:34;;;;;;;8.35;2.50;;;15.60;99.90;;;;;;5069235;28;20047;-69
2022/07/14 05:44:00;;;;;;;9.70;2.17;;;15.20;99.90;;;;;;5068647;28;20032;-70
2022/07/14 05:46:26;;;;;;;13.15;2.60;;;15.20;99.90;;;;;;5067788;28;20109;-70
2022/07/14 05:48:51;;;;;;;14.85;2.88;;;15.50;99.90;;;;;;5052175;28;20045;-68
2022/07/14 05:51:18;;;;;;;13.25;2.80;;;15.30;99.90;;;;;;5070419;28;20515;-68
2022/07/14 05:53:45;;;;;;;8.35;2.30;;;15.30;99.90;;;;;;5069814;28;20123;-68
2022/07/14 05:56:13;;;;;;;7.32;2.15;;;16.00;99.90;;;;;;5050946;28;20334;-69
2022/07/14 05:58:39;;;;;;;6.47;2.05;;;15.90;99.90;;;;;;5067852;28;20045;-70
2022/07/14 06:01:07;;;;;;;7.68;2.15;;;15.60;99.90;;;;;;5067871;28;20048;-70
2022/07/14 06:03:34;;;;;;;7.68;2.35;;;15.60;99.90;;;;;;5068187;28;20145;-71
2022/07/14 06:06:02;;;;;;;6.95;2.10;;;15.70;99.90;;;;;;5033965;28;20462;-70
2022/07/14 06:08:28;;;;;;;7.20;2.40;;;16.40;99.90;;;;;;5067899;28;20373;-70
2022/07/14 06:10:57;;;;;;;8.40;2.10;;;15.70;99.90;;;;;;5068327;28;20068;-70
2022/07/14 06:13:27;;;;;;;8.30;2.42;;;15.70;99.90;;;;;;5066505;28;20046;-70
2022/07/14 06:15:54;;;;;;;9.00;2.30;;;15.80;99.90;;;;;;5069160;28;20036;-70
2022/07/14 06:18:20;;;;;;;16.83;2.75;;;15.80;99.90;;;;;;5070996;28;20060;-68
2022/07/14 06:20:47;;;;;;;9.75;2.40;;;16.00;99.90;;;;;;5064877;28;20037;-70
2022/07/14 06:23:12;;;;;;;9.02;2.42;;;16.80;99.90;;;;;;5030301;28;20346;-70
2022/07/14 06:25:38;;;;;;;8.95;2.15;;;16.10;99.90;;;;;;5049707;28;20085;-70
2022/07/14 06:28:05;;;;;;;7.93;1.98;;;16.20;99.90;;;;;;5047299;28;20048;-70
2022/07/14 06:30:30;;;;;;;8.20;1.67;;;16.20;99.90;;;;;;5029794;28;20409;-70
2022/07/14 06:32:57;;;;;;;5.07;1.40;;;16.40;99.90;;;;;;5048603;28;20044;-70
2022/07/14 06:35:22;;;;;;;8.10;1.67;;;16.50;99.90;;;;;;5047470;28;20098;-71
2022/07/14 06:37:48;;;;;;;8.20;1.70;;;16.60;99.90;;;;;;5048161;28;20053;-69
2022/07/14 06:40:14;;;;;;;7.32;1.50;;;16.80;99.90;;;;;;5047907;28;20434;-70
2022/07/14 06:42:39;;;;;;;9.77;1.73;;;16.70;99.90;;;;;;5049086;28;20036;-71
2022/07/14 06:45:05;;;;;;;5.93;1.88;;;16.80;99.90;;;;;;5047567;28;20041;-70
2022/07/14 06:47:31;;;;;;;8.57;1.80;;;16.80;99.90;;;;;;5047256;28;20500;-71
2022/07/14 06:49:58;;;;;;;7.13;2.03;;;16.90;99.90;;;;;;5048050;28;20045;-70
2022/07/14 06:52:24;;;;;;;8.68;2.00;;;16.90;99.90;;;;;;5047564;28;20052;-70
2022/07/14 06:54:50;;;;;;;16.80;2.70;;;17.00;99.90;;;;;;5045826;28;20395;-70
2022/07/14 06:57:19;;;;;;;7.40;2.08;;;17.00;99.90;;;;;;5031357;28;20509;-71
2022/07/14 06:59:45;;;;;;;6.32;1.75;;;17.00;99.90;;;;;;5029096;28;20092;-71
2022/07/14 07:02:11;;;;;;;7.55;1.85;;;17.60;99.90;;;;;;5047124;28;20045;-70
2022/07/14 07:04:37;;;;;;;4.60;1.30;;;17.30;99.90;;;;;;5047853;28;20052;-70
2022/07/14 07:07:03;;;;;;;4.32;1.50;;;17.70;99.90;;;;;;5047482;28;20037;-70
2022/07/14 07:09:29;;;;;;;8.30;1.63;;;17.50;99.90;;;;;;5046951;28;20080;-69
2022/07/14 07:11:54;;;;;;;5.47;1.63;;;17.60;99.90;;;;;;5065860;28;20083;-69
2022/07/14 07:14:20;;;;;;;6.60;1.55;;;17.60;99.90;;;;;;5049049;28;20580;-69
2022/07/14 07:16:47;;;;;;;6.30;1.70;;;17.70;99.90;;;;;;5066791;28;20048;-68
2022/07/14 07:19:14;;;;;;;6.60;1.45;;;17.70;99.90;;;;;;5067362;28;20049;-69
2022/07/14 07:21:39;;;;;;;6.68;1.70;;;17.80;99.90;;;;;;5049689;28;20044;-69
2022/07/14 07:24:05;;;;;;;7.50;1.60;;;17.90;99.90;;;;;;5065956;28;20482;-69
2022/07/14 07:26:36;;;;;;;4.93;1.30;;;17.90;99.90;;;;;;5067691;28;20048;-69
2022/07/14 07:29:04;;;;;;;6.25;1.60;;;18.10;99.90;;;;;;5067108;28;20068;-69
2022/07/14 07:31:31;;;;;;;6.72;1.50;;;17.80;99.90;;;;;;5066520;28;20388;-69
2022/07/14 07:33:57;;;;;;;5.93;1.70;;;18.00;99.90;;;;;;5067251;28;20041;-69
2022/07/14 07:36:22;;;;;;;6.55;1.45;;;18.20;99.90;;;;;;5067145;28;20536;-69
2022/07/14 07:38:48;;;;;;;6.68;1.38;;;18.30;99.90;;;;;;5049050;28;20045;-69
2022/07/14 07:41:14;;;;;;;6.45;1.52;;;18.40;99.90;;;;;;5066324;28;20048;-69
2022/07/14 07:43:40;;;;;;;3.90;1.20;;;18.50;99.90;;;;;;5066072;28;20222;-69
2022/07/14 07:46:07;;;;;;;7.15;1.20;;;18.40;99.90;;;;;;5048474;28;20047;-69
2022/07/14 07:48:33;;;;;;;3.80;1.00;;;18.50;99.90;;;;;;5053466;28;20044;-69
2022/07/14 07:50:59;;;;;;;5.15;1.20;;;18.60;99.90;;;;;;5046564;28;20075;-69
2022/07/14 07:53:25;;;;;;;4.13;1.10;;;18.70;99.90;;;;;;5028869;28;20131;-69
2022/07/14 07:55:51;;;;;;;3.80;1.20;;;18.70;99.90;;;;;;5047249;28;20053;-69
2022/07/14 07:58:18;;;;;;;5.07;1.20;;;18.80;99.90;;;;;;5047901;28;20397;-69
2022/07/14 08:00:44;;;;;;;7.82;1.45;;;18.90;99.90;;;;;;5046442;28;20106;-69
2022/07/14 08:03:10;;;;;;;5.05;1.38;;;18.90;99.90;;;;;;5037916;28;20489;-69
2022/07/14 08:05:35;;;;;;;3.83;1.08;;;19.10;99.90;;;;;;5065986;28;20047;-69
2022/07/14 08:08:01;;;;;;;2.47;1.00;;;19.10;99.90;;;;;;5066631;28;20106;-70
2022/07/14 08:10:27;;;;;;;3.35;1.10;;;19.20;99.90;;;;;;5065566;28;20511;-69
2022/07/14 08:12:53;;;;;;;4.78;1.15;;;19.20;99.90;;;;;;5066451;28;20045;-69
2022/07/14 08:15:19;;;;;;;3.20;1.02;;;19.30;99.90;;;;;;5069025;28;20409;-69
2022/07/14 08:17:45;;;;;;;2.42;1.10;;;19.50;99.90;;;;;;5051135;28;20413;-70
2022/07/14 08:20:12;;;;;;;2.95;1.10;;;19.60;99.90;;;;;;5048094;28;20052;-70
2022/07/14 08:22:38;;;;;;;5.00;1.10;;;19.60;99.90;;;;;;5066471;28;20070;-70
2022/07/14 08:25:06;;;;;;;3.50;1.40;;;19.70;99.90;;;;;;5053559;28;20052;-68
2022/07/14 08:27:33;;;;;;;4.15;1.20;;;19.70;99.90;;;;;;5071224;28;20067;-69
2022/07/14 08:29:59;;;;;;;3.92;1.02;;;19.80;99.90;;;;;;5070058;28;20043;-68
2022/07/14 08:32:42;;;;;;;2.72;1.20;;;19.90;99.90;;;;;;5052412;28;20428;-69
2022/07/14 08:35:10;;;;;;;3.38;1.13;;;20.00;99.90;;;;;;5069745;28;20040;-69
2022/07/14 08:37:36;;;;;;;5.50;1.38;;;20.30;99.90;;;;;;5070058;28;20113;-69
2022/07/14 08:40:04;;;;;;;5.90;1.20;;;20.40;99.90;;;;;;5069752;28;20094;-69
2022/07/14 08:42:30;;;;;;;4.43;1.10;;;20.40;99.90;;;;;;5052922;28;20442;-69
2022/07/14 08:44:57;;;;;;;2.90;1.10;;;20.50;99.90;;;;;;5051304;28;20052;-69
2022/07/14 08:47:22;;;;;;;4.63;1.08;;;20.50;99.90;;;;;;5069948;28;20064;-69
2022/07/14 08:49:48;;;;;;;3.35;1.10;;;20.50;99.90;;;;;;5072006;28;20099;-69
2022/07/14 08:52:19;;;;;;;4.07;1.15;;;21.00;99.90;;;;;;5051683;28;20480;-69
2022/07/14 08:54:46;;;;;;;4.47;1.27;;;20.50;99.90;;;;;;5069620;28;20092;-69
2022/07/14 08:57:12;;;;;;;5.88;1.30;;;20.60;99.90;;;;;;5071191;28;20901;-69
2022/07/14 08:59:38;;;;;;;2.72;1.00;;;20.60;99.90;;;;;;5068470;28;20056;-69
2022/07/14 09:02:04;;;;;;;5.70;1.10;;;20.70;99.90;;;;;;5069303;28;20117;-69
2022/07/14 09:04:30;;;;;;;3.40;1.17;;;20.80;99.90;;;;;;5069207;28;20441;-69
2022/07/14 09:06:56;;;;;;;2.38;1.10;;;20.90;99.90;;;;;;5069816;28;20119;-69
2022/07/14 09:09:24;;;;;;;6.20;1.40;;;21.00;99.90;;;;;;5068343;28;20174;-70
2022/07/14 09:12:01;;;;;;;4.40;1.20;;;21.00;99.90;;;;;;5069114;28;20044;-69
2022/07/14 09:14:29;;;;;;;3.85;1.30;;;21.00;99.90;;;;;;5068182;28;20465;-69
2022/07/14 09:17:15;;;;;;;2.40;1.00;;;20.90;99.90;;;;;;5069028;28;20056;-69
2022/07/14 09:20:08;;;;;;;4.32;1.40;;;21.00;99.90;;;;;;5051307;28;20053;-69
2022/07/14 09:22:36;;;;;;;5.30;1.30;;;21.00;99.90;;;;;;5067239;28;20048;-69
2022/07/14 09:25:06;;;;;;;5.82;1.10;;;21.00;99.90;;;;;;5034971;28;20061;-69
2022/07/14 09:27:32;;;;;;;4.10;1.02;;;21.00;99.90;;;;;;5046844;28;20119;-69
2022/07/14 09:29:58;;;;;;;4.15;1.33;;;21.00;99.90;;;;;;5065327;28;20574;-69
2022/07/14 09:32:57;;;;;;;2.72;1.10;;;20.90;99.90;;;;;;5068574;28;20449;-69
2022/07/14 09:35:37;;;;;;;5.38;1.08;;;21.10;99.90;;;;;;5067915;28;20117;-69
2022/07/14 09:38:18;;;;;;;3.85;1.20;;;21.30;99.90;;;;;;5068309;28;20454;-69
2022/07/14 09:40:46;;;;;;;3.50;1.10;;;21.60;99.90;;;;;;5068616;28;20086;-69
2022/07/14 09:43:15;;;;;;;5.32;1.10;;;21.90;99.90;;;;;;5049060;28;20044;-70
2022/07/14 09:45:46;;;;;;;2.92;1.15;;;22.10;99.90;;;;;;5070142;28;20082;-69
2022/07/14 09:48:21;;;;;;;3.28;1.30;;;22.40;99.90;;;;;;5068458;28;20116;-69
2022/07/14 09:50:49;;;;;;;4.95;1.20;;;22.40;99.90;;;;;;5051297;28;20053;-69
2022/07/14 09:53:23;;;;;;;3.38;1.10;;;22.50;99.90;;;;;;5070927;28;20063;-69
2022/07/14 09:55:56;;;;;;;4.53;1.30;;;22.80;99.90;;;;;;5050427;28;20060;-69
2022/07/14 09:58:24;;;;;;;3.67;1.27;;;22.90;99.90;;;;;;5067539;28;20431;-69
2022/07/14 10:01:02;;;;;;;3.05;1.30;;;22.90;99.90;;;;;;5067597;28;20127;-69
2022/07/14 10:03:29;;;;;;;4.10;1.10;;;22.90;99.90;;;;;;5070924;28;20119;-69
2022/07/14 10:05:57;;;;;;;2.50;1.00;;;22.70;99.90;;;;;;5052376;28;20083;-69
2022/07/14 10:08:28;;;;;;;5.20;1.23;;;22.60;99.90;;;;;;5049286;28;20044;-69
2022/07/14 10:10:55;;;;;;;5.45;1.20;;;22.60;99.90;;;;;;5043799;28;20119;-69
2022/07/14 10:13:22;;;;;;;4.82;1.27;;;22.70;99.90;;;;;;5045802;28;20141;-69
2022/07/14 10:15:50;;;;;;;3.47;1.15;;;22.90;99.90;;;;;;5048475;28;20048;-69
2022/07/14 10:18:16;;;;;;;6.18;1.40;;;22.70;99.90;;;;;;5047106;28;20098;-69
2022/07/14 10:20:50;;;;;;;2.95;1.20;;;23.20;99.90;;;;;;5046362;28;20049;-69
2022/07/14 10:23:17;;;;;;;3.35;1.02;;;24.00;99.90;;;;;;5045896;28;20059;-69
2022/07/14 10:25:46;;;;;;;4.38;1.20;;;24.20;99.70;;;;;;5047283;28;20041;-70
2022/07/14 10:28:14;;;;;;;5.65;1.00;;;24.00;99.50;;;;;;5046707;28;20041;-69
2022/07/14 10:31:02;;;;;;;3.97;1.20;;;23.70;99.80;;;;;;5046411;28;20099;-68
2022/07/14 10:34:07;;;;;;;2.33;0.95;;;23.40;99.90;;;;;;5047365;28;20049;-69
2022/07/14 10:36:44;;;;;;;4.55;1.10;;;24.80;99.60;;;;;;5059565;28;20080;-70
2022/07/14 10:39:38;;;;;;;2.70;1.13;;;25.90;97.70;;;;;;5046914;28;20052;-69
2022/07/14 10:42:17;;;;;;;3.45;1.02;;;25.40;97.40;;;;;;5047435;28;20053;-70
2022/07/14 10:44:45;;;;;;;4.88;1.35;;;25.10;97.60;;;;;;5046646;28;20048;-70
2022/07/14 10:47:15;;;;;;;3.83;1.30;;;24.50;97.80;;;;;;5047240;28;20045;-70
2022/07/14 10:50:00;;;;;;;4.88;1.25;;;24.10;98.80;;;;;;5046130;28;20052;-70
2022/07/14 10:52:28;;;;;;;4.72;1.20;;;23.60;99.10;;;;;;5048316;28;20128;-70
2022/07/14 10:55:23;;;;;;;4.38;1.20;;;23.20;99.30;;;;;;5048093;28;20045;-69
2022/07/14 10:58:01;;;;;;;4.05;1.20;;;22.70;99.50;;;;;;5048768;28;20056;-70
2022/07/14 11:00:42;;;;;;;4.22;1.10;;;22.60;99.90;;;;;;5047826;28;20107;-70
2022/07/14 11:03:22;;;;;;;3.92;1.10;;;22.40;99.90;;;;;;5047618;28;20049;-70
2022/07/14 11:06:12;;;;;;;4.85;1.20;;;22.30;99.90;;;;;;5047283;28;20389;-70
2022/07/14 11:08:43;;;;;;;3.95;1.20;;;22.10;99.90;;;;;;5047416;28;20071;-70
2022/07/14 11:11:20;;;;;;;3.25;1.10;;;22.10;99.90;;;;;;5044797;28;20060;-70
2022/07/14 11:14:01;;;;;;;5.28;1.13;;;22.00;99.90;;;;;;5046270;28;20124;-70
2022/07/14 11:16:50;;;;;;;2.97;1.20;;;21.90;99.90;;;;;;5047708;28;20049;-70
2022/07/14 11:19:33;;;;;;;4.13;1.30;;;21.80;99.90;;;;;;5049843;28;20055;-70
2022/07/14 11:22:18;;;;;;;7.75;1.58;;;21.80;99.90;;;;;;5046866;28;20051;-70
2022/07/14 11:24:58;;;;;;;5.87;1.47;;;21.80;99.90;;;;;;5048255;28;20052;-69
2022/07/14 11:27:30;;;;;;;2.72;1.00;;;22.00;99.90;;;;;;5051319;28;20044;-70
2022/07/14 11:29:57;;;;;;;4.85;1.20;;;22.00;99.90;;;;;;5049278;28;20555;-70
2022/07/14 11:32:34;;;;;;;2.42;1.15;;;22.20;99.90;;;;;;5067135;28;20128;-70
2022/07/14 11:38:20;;;;;;;3.55;1.20;;;23.80;99.90;;;;;;5068035;28;20053;-70
2022/07/14 11:40:53;;;;;;;4.68;1.52;;;25.30;99.20;;;;;;5066540;28;20119;-70
2022/07/14 11:43:31;;;;;;;3.60;1.10;;;27.40;96.60;;;;;;5048182;28;20127;-70
2022/07/14 11:46:19;;;;;;;6.97;1.35;;;28.20;95.70;;;;;;5067708;28;20074;-70
2022/07/14 11:48:53;;;;;;;3.83;1.10;;;27.90;95.20;;;;;;5066307;28;20068;-70
2022/07/14 11:51:31;;;;;;;3.20;1.00;;;27.20;95.60;;;;;;5049253;28;20048;-70
2022/07/14 11:54:01;;;;;;;4.25;1.30;;;26.20;96.30;;;;;;5067472;28;20426;-70
2022/07/14 11:56:29;;;;;;;3.33;1.13;;;25.50;97.00;;;;;;5068716;28;20048;-70
2022/07/14 11:59:03;;;;;;;5.75;1.10;;;25.30;97.20;;;;;;5068887;28;20540;-70
2022/07/14 12:01:42;;;;;;;2.28;1.05;;;25.00;97.20;;;;;;5052180;28;20413;-70
2022/07/14 12:04:14;;;;;;;5.32;1.30;;;24.50;97.80;;;;;;5053397;28;20401;-70
2022/07/14 12:06:44;;;;;;;4.03;1.30;;;23.80;98.50;;;;;;5050882;28;20421;-69
2022/07/14 12:09:10;;;;;;;4.45;1.30;;;23.40;98.90;;;;;;5049341;28;20048;-70
2022/07/14 12:11:36;;;;;;;3.92;1.40;;;23.10;99.40;;;;;;5032230;28;20111;-70
2022/07/14 12:14:03;;;;;;;8.13;1.45;;;22.90;99.90;;;;;;5050444;28;20454;-70
2022/07/14 12:16:41;;;;;;;5.10;1.30;;;22.80;99.90;;;;;;5048609;28;20063;-70
2022/07/14 12:19:08;;;;;;;6.43;1.40;;;22.80;99.90;;;;;;5051226;28;20041;-70
2022/07/14 12:21:34;;;;;;;4.47;1.20;;;23.20;99.90;;;;;;5050178;28;20041;-71
2022/07/14 12:24:02;;;;;;;4.50;1.30;;;23.60;99.90;;;;;;5049112;28;20052;-71
2022/07/14 12:26:28;;;;;;;7.60;1.52;;;24.10;99.90;;;;;;5032108;28;20069;-71
2022/07/14 12:28:56;;;;;;;6.40;1.38;;;24.30;99.60;;;;;;5050177;28;20131;-69
2022/07/14 12:31:22;;;;;;;3.10;1.02;;;24.10;99.20;;;;;;5031259;28;20095;-69
2022/07/14 12:33:53;;;;;;;3.97;1.10;;;24.20;99.00;;;;;;5050140;28;20065;-69
2022/07/14 12:36:22;;;;;;;3.80;1.30;;;23.90;98.40;;;;;;5050354;28;20485;-69
2022/07/14 12:38:49;;;;;;;4.65;0.98;;;23.50;98.50;;;;;;5051840;28;20513;-69
2022/07/14 12:41:20;;;;;;;3.85;1.10;;;23.40;99.00;;;;;;5050538;28;20045;-69
2022/07/14 12:43:46;;;;;;;5.25;1.30;;;23.10;99.30;;;;;;5031144;28;20148;-70
2022/07/14 12:46:18;;;;;;;4.05;1.25;;;22.90;99.50;;;;;;5051030;28;20053;-69
2022/07/14 12:48:49;;;;;;;4.22;1.30;;;22.80;99.70;;;;;;5045894;28;20201;-70
2022/07/14 12:51:16;;;;;;;5.80;1.27;;;22.40;99.60;;;;;;5069315;28;20062;-69
2022/07/14 12:54:33;;;;;;;7.22;1.20;;;22.30;99.80;;;;;;5051041;28;20052;-69
2022/07/14 12:56:59;;;;;;;4.05;1.17;;;22.10;99.40;;;;;;4988224;28;20050;-70
2022/07/14 12:59:34;;;;;;;3.95;1.20;;;22.20;99.70;;;;;;5061324;28;20052;-70